createdAt,value
2022-12-24T00:00:10.485Z,87
2022-12-24T00:00:37.923Z,87
2022-12-24T00:00:58.306Z,88
2022-12-24T00:01:28.944Z,87
2022-12-24T00:02:01.291Z,87
2022-12-24T00:02:33.186Z,87
2022-12-24T00:02:48.760Z,87
2022-12-24T00:03:22.005Z,87
2022-12-24T00:03:42.031Z,87
2022-12-24T00:04:09.161Z,87
2022-12-24T00:04:37.107Z,87
2022-12-24T00:05:00.821Z,87
2022-12-24T00:05:29.513Z,86
2022-12-24T00:06:01.008Z,86
2022-12-24T00:06:32.385Z,86
2022-12-24T00:06:48.759Z,86
2022-12-24T00:07:20.402Z,86
2022-12-24T00:07:42.173Z,86
2022-12-24T00:08:09.007Z,86
2022-12-24T00:08:36.635Z,87
2022-12-24T00:08:56.282Z,87
2022-12-24T00:09:30.104Z,87
2022-12-24T00:10:01.148Z,87
2022-12-24T00:10:32.507Z,87
2022-12-24T00:10:49.516Z,86
2022-12-24T00:11:20.323Z,86
2022-12-24T00:11:41.949Z,87
2022-12-24T00:12:08.940Z,87
2022-12-24T00:12:36.729Z,87
2022-12-24T00:12:56.337Z,87
2022-12-24T00:13:28.908Z,87
2022-12-24T00:14:00.939Z,85
2022-12-24T00:14:32.588Z,85
2022-12-24T00:14:48.752Z,85
2022-12-24T00:15:21.379Z,85
2022-12-24T00:15:42.399Z,85
2022-12-24T00:16:08.969Z,85
2022-12-24T00:16:36.857Z,85
2022-12-24T00:16:56.321Z,85
2022-12-24T00:17:28.861Z,85
2022-12-24T00:18:00.698Z,86
2022-12-24T00:18:33.051Z,86
2022-12-24T00:19:04.465Z,86
2022-12-24T00:19:36.791Z,86
2022-12-24T00:20:09.809Z,86
2022-12-24T00:20:37.132Z,86
2022-12-24T00:20:56.837Z,85
2022-12-24T00:21:29.359Z,86
2022-12-24T00:22:00.850Z,86
2022-12-24T00:22:32.309Z,86
2022-12-24T00:22:48.684Z,86
2022-12-24T00:23:20.344Z,86
2022-12-24T00:23:41.972Z,86
2022-12-24T00:24:09.263Z,86
2022-12-24T00:24:37.206Z,86
2022-12-24T00:24:56.838Z,86
2022-12-24T00:25:29.389Z,86
2022-12-24T00:26:00.582Z,85
2022-12-24T00:26:34.884Z,85
2022-12-24T00:27:04.531Z,85
2022-12-24T00:27:36.350Z,85
2022-12-24T00:28:08.880Z,85
2022-12-24T00:28:36.875Z,85
2022-12-24T00:28:56.374Z,85
2022-12-24T00:29:28.995Z,85
2022-12-24T00:30:01.968Z,86
2022-12-24T00:30:32.481Z,85
2022-12-24T00:30:49.951Z,86
2022-12-24T00:31:20.604Z,85
2022-12-24T00:31:41.960Z,85
2022-12-24T00:32:08.864Z,85
2022-12-24T00:32:36.708Z,85
2022-12-24T00:32:56.239Z,85
2022-12-24T00:33:29.000Z,86
2022-12-24T00:34:02.001Z,86
2022-12-24T00:34:32.426Z,85
2022-12-24T00:34:49.008Z,85
2022-12-24T00:35:20.790Z,86
2022-12-24T00:35:42.182Z,86
2022-12-24T00:36:09.136Z,86
2022-12-24T00:36:36.691Z,86
2022-12-24T00:36:56.322Z,85
2022-12-24T00:37:30.012Z,85
2022-12-24T00:38:00.712Z,86
2022-12-24T00:38:32.382Z,86
2022-12-24T00:38:48.734Z,86
2022-12-24T00:39:20.312Z,86
2022-12-24T00:39:41.992Z,86
2022-12-24T00:40:09.300Z,86
2022-12-24T00:40:36.843Z,86
2022-12-24T00:40:56.624Z,86
2022-12-24T00:41:29.463Z,85
2022-12-24T00:42:00.682Z,86
2022-12-24T00:42:32.830Z,86
2022-12-24T00:43:04.493Z,86
2022-12-24T00:43:36.340Z,86
2022-12-24T00:44:09.211Z,86
2022-12-24T00:44:38.037Z,86
2022-12-24T00:44:56.211Z,86
2022-12-24T00:45:30.486Z,86
2022-12-24T00:46:00.622Z,86
2022-12-24T00:46:32.567Z,85
2022-12-24T00:46:48.784Z,86
2022-12-24T00:47:20.753Z,86
2022-12-24T00:47:42.010Z,86
2022-12-24T00:48:09.058Z,86
2022-12-24T00:48:36.985Z,86
2022-12-24T00:48:56.433Z,86
2022-12-24T00:49:28.864Z,86
2022-12-24T00:50:01.191Z,86
2022-12-24T00:50:32.515Z,86
2022-12-24T00:50:49.538Z,86
2022-12-24T00:51:20.502Z,86
2022-12-24T00:51:42.063Z,86
2022-12-24T00:52:08.809Z,86
2022-12-24T00:52:36.840Z,86
2022-12-24T00:52:58.299Z,86
2022-12-24T00:53:28.806Z,86
2022-12-24T00:54:00.675Z,86
2022-12-24T00:54:32.578Z,86
2022-12-24T00:54:48.914Z,86
2022-12-24T00:55:20.741Z,86
2022-12-24T00:55:41.921Z,86
2022-12-24T00:56:11.161Z,86
2022-12-24T00:56:36.837Z,86
2022-12-24T00:56:56.291Z,86
2022-12-24T00:57:29.344Z,86
2022-12-24T00:58:05.388Z,86
2022-12-24T00:58:32.346Z,86
2022-12-24T00:58:48.869Z,86
2022-12-24T00:59:20.436Z,86
2022-12-24T00:59:41.996Z,86
2022-12-24T01:00:10.427Z,86
2022-12-24T01:00:38.064Z,86
2022-12-24T01:00:57.409Z,86
2022-12-24T01:01:29.072Z,86
2022-12-24T01:02:01.197Z,86
2022-12-24T01:02:33.097Z,86
2022-12-24T01:02:48.929Z,86
2022-12-24T01:03:20.491Z,86
2022-12-24T01:03:42.097Z,86
2022-12-24T01:04:08.828Z,86
2022-12-24T01:04:36.810Z,86
2022-12-24T01:04:56.369Z,86
2022-12-24T01:05:32.320Z,86
2022-12-24T01:06:00.847Z,86
2022-12-24T01:06:32.263Z,86
2022-12-24T01:06:48.727Z,86
2022-12-24T01:07:20.339Z,86
2022-12-24T01:07:41.972Z,87
2022-12-24T01:08:09.117Z,87
2022-12-24T01:08:37.187Z,87
2022-12-24T01:08:56.634Z,86
2022-12-24T01:09:29.620Z,86
2022-12-24T01:10:01.787Z,85
2022-12-24T01:10:32.520Z,85
2022-12-24T01:10:49.764Z,85
2022-12-24T01:11:20.542Z,86
2022-12-24T01:11:41.994Z,86
2022-12-24T01:12:08.933Z,86
2022-12-24T01:12:36.766Z,86
2022-12-24T01:12:56.286Z,86
2022-12-24T01:13:29.023Z,86
2022-12-24T01:14:00.941Z,86
2022-12-24T01:14:35.866Z,86
2022-12-24T01:15:05.987Z,86
2022-12-24T01:15:36.349Z,86
2022-12-24T01:16:09.051Z,86
2022-12-24T01:16:37.253Z,86
2022-12-24T01:16:56.318Z,86
2022-12-24T01:17:28.898Z,86
2022-12-24T01:18:00.512Z,86
2022-12-24T01:18:32.381Z,86
2022-12-24T01:18:48.695Z,86
2022-12-24T01:19:20.388Z,86
2022-12-24T01:19:44.687Z,86
2022-12-24T01:20:09.288Z,86
2022-12-24T01:20:37.806Z,86
2022-12-24T01:20:56.752Z,86
2022-12-24T01:21:29.087Z,86
2022-12-24T01:22:00.784Z,86
2022-12-24T01:22:32.455Z,85
2022-12-24T01:22:48.717Z,86
2022-12-24T01:23:20.371Z,86
2022-12-24T01:23:42.248Z,86
2022-12-24T01:24:08.861Z,86
2022-12-24T01:24:36.825Z,86
2022-12-24T01:24:56.338Z,86
2022-12-24T01:25:31.999Z,86
2022-12-24T01:26:00.644Z,86
2022-12-24T01:26:32.676Z,86
2022-12-24T01:27:04.524Z,86
2022-12-24T01:27:36.779Z,86
2022-12-24T01:28:08.942Z,86
2022-12-24T01:28:36.653Z,86
2022-12-24T01:28:56.284Z,85
2022-12-24T01:29:28.901Z,86
2022-12-24T01:30:02.070Z,86
2022-12-24T01:30:32.527Z,86
2022-12-24T01:30:49.332Z,86
2022-12-24T01:31:20.372Z,86
2022-12-24T01:31:42.776Z,86
2022-12-24T01:32:08.934Z,86
2022-12-24T01:32:36.800Z,86
2022-12-24T01:32:56.363Z,86
2022-12-24T01:33:28.870Z,87
2022-12-24T01:34:00.854Z,86
2022-12-24T01:34:32.510Z,87
2022-12-24T01:34:48.828Z,87
2022-12-24T01:35:20.592Z,86
2022-12-24T01:35:41.978Z,86
2022-12-24T01:36:08.886Z,86
2022-12-24T01:36:37.717Z,86
2022-12-24T01:36:56.479Z,86
2022-12-24T01:37:28.944Z,86
2022-12-24T01:38:00.842Z,86
2022-12-24T01:38:32.449Z,87
2022-12-24T01:38:48.736Z,87
2022-12-24T01:39:20.392Z,86
2022-12-24T01:39:45.406Z,86
2022-12-24T01:40:09.284Z,87
2022-12-24T01:40:36.688Z,87
2022-12-24T01:40:56.819Z,87
2022-12-24T01:41:28.922Z,87
2022-12-24T01:42:00.599Z,87
2022-12-24T01:42:32.440Z,87
2022-12-24T01:42:48.843Z,87
2022-12-24T01:43:20.324Z,87
2022-12-24T01:43:42.005Z,87
2022-12-24T01:44:08.923Z,87
2022-12-24T01:44:37.642Z,87
2022-12-24T01:44:56.506Z,87
2022-12-24T01:45:30.399Z,87
2022-12-24T01:46:01.230Z,87
2022-12-24T01:46:32.461Z,87
2022-12-24T01:46:51.337Z,87
2022-12-24T01:47:20.372Z,87
2022-12-24T01:47:41.939Z,87
2022-12-24T01:48:08.883Z,87
2022-12-24T01:48:36.851Z,87
2022-12-24T01:48:56.314Z,87
2022-12-24T01:49:31.998Z,87
2022-12-24T01:50:01.524Z,87
2022-12-24T01:50:32.265Z,87
2022-12-24T01:50:49.144Z,87
2022-12-24T01:51:20.367Z,87
2022-12-24T01:51:42.063Z,87
2022-12-24T01:52:08.916Z,87
2022-12-24T01:52:36.803Z,87
2022-12-24T01:52:56.300Z,87
2022-12-24T01:53:29.027Z,87
2022-12-24T01:54:00.629Z,87
2022-12-24T01:54:32.327Z,87
2022-12-24T01:54:48.713Z,87
2022-12-24T01:55:20.750Z,87
2022-12-24T01:55:42.044Z,87
2022-12-24T01:56:08.843Z,87
2022-12-24T01:56:36.887Z,87
2022-12-24T01:56:56.517Z,87
2022-12-24T01:57:29.289Z,87
2022-12-24T01:58:00.923Z,87
2022-12-24T01:58:32.279Z,87
2022-12-24T01:58:48.804Z,87
2022-12-24T01:59:20.664Z,87
2022-12-24T01:59:41.986Z,87
2022-12-24T02:00:10.196Z,87
2022-12-24T02:00:36.868Z,87
2022-12-24T02:00:58.368Z,86
2022-12-24T02:01:29.048Z,86
2022-12-24T02:02:00.731Z,85
2022-12-24T02:02:32.477Z,86
2022-12-24T02:02:48.875Z,86
2022-12-24T02:03:20.991Z,85
2022-12-24T02:03:42.089Z,85
2022-12-24T02:04:08.938Z,85
2022-12-24T02:04:36.841Z,85
2022-12-24T02:04:56.714Z,84
2022-12-24T02:05:30.064Z,85
2022-12-24T02:06:00.701Z,85
2022-12-24T02:06:32.841Z,85
2022-12-24T02:07:04.537Z,85
2022-12-24T02:07:36.384Z,85
2022-12-24T02:08:08.948Z,85
2022-12-24T02:08:36.982Z,85
2022-12-24T02:09:00.078Z,85
2022-12-24T02:09:30.285Z,85
2022-12-24T02:10:01.677Z,85
2022-12-24T02:10:32.313Z,86
2022-12-24T02:10:49.049Z,85
2022-12-24T02:11:21.728Z,85
2022-12-24T02:11:41.949Z,85
2022-12-24T02:12:09.056Z,85
2022-12-24T02:12:36.807Z,85
2022-12-24T02:12:56.280Z,85
2022-12-24T02:13:29.017Z,85
2022-12-24T02:14:01.226Z,85
2022-12-24T02:14:32.621Z,85
2022-12-24T02:14:48.715Z,85
2022-12-24T02:15:21.304Z,85
2022-12-24T02:15:42.149Z,85
2022-12-24T02:16:09.692Z,85
2022-12-24T02:16:37.058Z,85
2022-12-24T02:16:56.224Z,85
2022-12-24T02:17:28.924Z,85
2022-12-24T02:18:01.191Z,85
2022-12-24T02:18:33.748Z,85
2022-12-24T02:19:04.965Z,85
2022-12-24T02:19:42.793Z,86
2022-12-24T02:20:09.409Z,86
2022-12-24T02:20:37.263Z,86
2022-12-24T02:20:56.734Z,86
2022-12-24T02:21:29.408Z,86
2022-12-24T02:22:00.611Z,86
2022-12-24T02:22:32.329Z,86
2022-12-24T02:22:49.879Z,86
2022-12-24T02:23:20.340Z,86
2022-12-24T02:23:42.091Z,85
2022-12-24T02:24:08.913Z,85
2022-12-24T02:24:36.828Z,85
2022-12-24T02:24:56.957Z,86
2022-12-24T02:25:29.359Z,86
2022-12-24T02:26:01.005Z,85
2022-12-24T02:26:32.316Z,85
2022-12-24T02:26:48.693Z,85
2022-12-24T02:27:20.448Z,86
2022-12-24T02:27:42.108Z,86
2022-12-24T02:28:09.411Z,86
2022-12-24T02:28:37.903Z,86
2022-12-24T02:28:56.308Z,86
2022-12-24T02:29:28.932Z,86
2022-12-24T02:30:01.967Z,87
2022-12-24T02:30:32.392Z,87
2022-12-24T02:30:49.921Z,86
2022-12-24T02:31:20.440Z,87
2022-12-24T02:31:42.023Z,87
2022-12-24T02:32:09.259Z,87
2022-12-24T02:32:36.851Z,87
2022-12-24T02:32:56.236Z,86
2022-12-24T02:33:28.907Z,85
2022-12-24T02:34:00.427Z,85
2022-12-24T02:34:32.434Z,85
2022-12-24T02:34:48.709Z,84
2022-12-24T02:35:20.580Z,85
2022-12-24T02:35:42.051Z,85
2022-12-24T02:36:09.004Z,84
2022-12-24T02:36:36.780Z,84
2022-12-24T02:36:56.295Z,84
2022-12-24T02:37:28.937Z,84
2022-12-24T02:38:00.655Z,85
2022-12-24T02:38:32.560Z,85
2022-12-24T02:38:48.686Z,85
2022-12-24T02:39:20.366Z,85
2022-12-24T02:39:42.074Z,84
2022-12-24T02:40:15.996Z,84
2022-12-24T02:40:37.005Z,84
2022-12-24T02:40:56.767Z,85
2022-12-24T02:41:28.918Z,85
2022-12-24T02:42:00.600Z,84
2022-12-24T02:42:32.297Z,85
2022-12-24T02:42:48.931Z,85
2022-12-24T02:43:20.297Z,84
2022-12-24T02:43:42.065Z,84
2022-12-24T02:44:08.914Z,84
2022-12-24T02:44:37.790Z,84
2022-12-24T02:44:56.274Z,85
2022-12-24T02:45:31.053Z,85
2022-12-24T02:46:00.700Z,85
2022-12-24T02:46:32.499Z,85
2022-12-24T02:46:48.697Z,85
2022-12-24T02:47:20.264Z,85
2022-12-24T02:47:41.965Z,85
2022-12-24T02:48:08.813Z,84
2022-12-24T02:48:36.812Z,85
2022-12-24T02:48:56.267Z,84
2022-12-24T02:49:28.839Z,84
2022-12-24T02:50:01.724Z,83
2022-12-24T02:50:32.296Z,83
2022-12-24T02:50:49.674Z,83
2022-12-24T02:51:20.350Z,83
2022-12-24T02:51:42.005Z,83
2022-12-24T02:52:08.908Z,83
2022-12-24T02:52:36.917Z,84
2022-12-24T02:52:56.259Z,84
2022-12-24T02:53:29.058Z,84
2022-12-24T02:54:00.931Z,83
2022-12-24T02:54:32.391Z,83
2022-12-24T02:54:48.996Z,83
2022-12-24T02:55:21.280Z,82
2022-12-24T02:55:42.083Z,82
2022-12-24T02:56:08.898Z,82
2022-12-24T02:56:37.032Z,82
2022-12-24T02:56:56.365Z,82
2022-12-24T02:57:29.355Z,83
2022-12-24T02:58:00.607Z,83
2022-12-24T02:58:32.324Z,83
2022-12-24T02:58:48.685Z,83
2022-12-24T02:59:20.333Z,83
2022-12-24T02:59:42.067Z,83
2022-12-24T03:00:10.146Z,82
2022-12-24T03:00:36.870Z,82
2022-12-24T03:00:58.628Z,82
2022-12-24T03:01:29.087Z,82
2022-12-24T03:02:01.033Z,83
2022-12-24T03:02:32.532Z,83
2022-12-24T03:02:48.858Z,83
2022-12-24T03:03:20.328Z,83
2022-12-24T03:03:41.967Z,83
2022-12-24T03:04:08.925Z,83
2022-12-24T03:04:38.350Z,83
2022-12-24T03:04:56.294Z,83
2022-12-24T03:05:29.440Z,83
2022-12-24T03:06:00.467Z,83
2022-12-24T03:06:32.308Z,83
2022-12-24T03:06:48.788Z,83
2022-12-24T03:07:20.607Z,83
2022-12-24T03:07:41.967Z,83
2022-12-24T03:08:08.865Z,82
2022-12-24T03:08:36.835Z,83
2022-12-24T03:08:56.271Z,83
2022-12-24T03:09:29.474Z,83
2022-12-24T03:10:01.185Z,83
2022-12-24T03:10:32.325Z,83
2022-12-24T03:10:49.399Z,83
2022-12-24T03:11:20.332Z,83
2022-12-24T03:11:41.982Z,83
2022-12-24T03:12:08.943Z,83
2022-12-24T03:12:37.148Z,83
2022-12-24T03:12:56.362Z,83
2022-12-24T03:13:29.556Z,83
2022-12-24T03:14:00.687Z,83
2022-12-24T03:14:32.448Z,83
2022-12-24T03:14:48.777Z,83
2022-12-24T03:15:21.343Z,83
2022-12-24T03:15:42.146Z,83
2022-12-24T03:16:08.930Z,83
2022-12-24T03:16:36.832Z,83
2022-12-24T03:16:56.220Z,83
2022-12-24T03:17:28.896Z,83
2022-12-24T03:18:00.533Z,82
2022-12-24T03:18:32.789Z,83
2022-12-24T03:18:48.901Z,83
2022-12-24T03:19:20.314Z,83
2022-12-24T03:19:42.095Z,83
2022-12-24T03:20:09.336Z,82
2022-12-24T03:20:37.489Z,82
2022-12-24T03:20:56.625Z,82
2022-12-24T03:21:29.464Z,82
2022-12-24T03:22:00.689Z,82
2022-12-24T03:22:32.551Z,83
2022-12-24T03:22:48.772Z,83
2022-12-24T03:23:20.401Z,82
2022-12-24T03:23:42.023Z,82
2022-12-24T03:24:08.946Z,81
2022-12-24T03:24:36.932Z,81
2022-12-24T03:24:56.214Z,82
2022-12-24T03:25:29.369Z,82
2022-12-24T03:26:00.957Z,82
2022-12-24T03:26:32.280Z,82
2022-12-24T03:26:48.668Z,82
2022-12-24T03:27:20.357Z,82
2022-12-24T03:27:42.126Z,82
2022-12-24T03:28:08.922Z,82
2022-12-24T03:28:37.321Z,83
2022-12-24T03:28:56.352Z,83
2022-12-24T03:29:28.857Z,82
2022-12-24T03:30:02.070Z,82
2022-12-24T03:30:32.467Z,82
2022-12-24T03:30:49.517Z,82
2022-12-24T03:31:20.367Z,82
2022-12-24T03:31:42.030Z,82
2022-12-24T03:32:08.825Z,82
2022-12-24T03:32:36.799Z,82
2022-12-24T03:32:56.342Z,82
2022-12-24T03:33:29.018Z,82
2022-12-24T03:34:00.480Z,82
2022-12-24T03:34:32.458Z,82
2022-12-24T03:34:48.717Z,82
2022-12-24T03:35:20.615Z,82
2022-12-24T03:35:42.051Z,82
2022-12-24T03:36:08.927Z,82
2022-12-24T03:36:37.202Z,82
2022-12-24T03:36:56.254Z,82
2022-12-24T03:37:28.905Z,81
2022-12-24T03:38:00.505Z,82
2022-12-24T03:38:32.202Z,81
2022-12-24T03:38:48.679Z,81
2022-12-24T03:39:20.429Z,82
2022-12-24T03:39:42.484Z,82
2022-12-24T03:40:09.327Z,82
2022-12-24T03:40:36.782Z,82
2022-12-24T03:40:56.703Z,82
2022-12-24T03:41:29.007Z,82
2022-12-24T03:42:00.850Z,83
2022-12-24T03:42:32.452Z,83
2022-12-24T03:42:48.923Z,82
2022-12-24T03:43:20.795Z,82
2022-12-24T03:43:43.844Z,82
2022-12-24T03:44:08.926Z,82
2022-12-24T03:44:36.806Z,82
2022-12-24T03:44:56.318Z,82
2022-12-24T03:45:30.334Z,82
2022-12-24T03:46:00.562Z,82
2022-12-24T03:46:32.463Z,82
2022-12-24T03:46:48.995Z,82
2022-12-24T03:47:20.220Z,82
2022-12-24T03:47:42.540Z,82
2022-12-24T03:48:08.861Z,81
2022-12-24T03:48:36.892Z,82
2022-12-24T03:48:56.322Z,81
2022-12-24T03:49:28.869Z,80
2022-12-24T03:50:01.532Z,81
2022-12-24T03:50:32.410Z,81
2022-12-24T03:50:49.501Z,82
2022-12-24T03:51:20.261Z,82
2022-12-24T03:51:41.998Z,82
2022-12-24T03:52:08.915Z,82
2022-12-24T03:52:36.762Z,82
2022-12-24T03:52:56.238Z,82
2022-12-24T03:53:28.854Z,82
2022-12-24T03:54:00.544Z,83
2022-12-24T03:54:32.428Z,83
2022-12-24T03:54:49.223Z,83
2022-12-24T03:55:20.737Z,81
2022-12-24T03:55:42.171Z,81
2022-12-24T03:56:08.960Z,81
2022-12-24T03:56:36.830Z,81
2022-12-24T03:56:56.237Z,81
2022-12-24T03:57:29.510Z,81
2022-12-24T03:58:00.736Z,81
2022-12-24T03:58:32.377Z,81
2022-12-24T03:58:48.810Z,81
2022-12-24T03:59:20.749Z,80
2022-12-24T03:59:41.983Z,80
2022-12-24T04:00:10.276Z,80
2022-12-24T04:00:36.995Z,81
2022-12-24T04:00:56.805Z,80
2022-12-24T04:01:29.071Z,81
2022-12-24T04:02:01.001Z,82
2022-12-24T04:02:32.634Z,82
2022-12-24T04:02:49.035Z,82
2022-12-24T04:03:20.270Z,82
2022-12-24T04:03:42.136Z,82
2022-12-24T04:04:09.679Z,82
2022-12-24T04:04:37.867Z,82
2022-12-24T04:04:56.285Z,81
2022-12-24T04:05:29.906Z,80
2022-12-24T04:06:01.146Z,81
2022-12-24T04:06:33.025Z,80
2022-12-24T04:06:48.895Z,81
2022-12-24T04:07:20.488Z,81
2022-12-24T04:07:42.157Z,81
2022-12-24T04:08:08.912Z,82
2022-12-24T04:08:36.762Z,82
2022-12-24T04:08:56.683Z,82
2022-12-24T04:09:29.581Z,82
2022-12-24T04:10:01.279Z,82
2022-12-24T04:10:32.262Z,82
2022-12-24T04:10:49.145Z,82
2022-12-24T04:11:20.379Z,81
2022-12-24T04:11:42.093Z,81
2022-12-24T04:12:09.575Z,82
2022-12-24T04:12:37.691Z,82
2022-12-24T04:12:56.588Z,81
2022-12-24T04:13:29.267Z,82
2022-12-24T04:14:00.777Z,81
2022-12-24T04:14:35.547Z,82
2022-12-24T04:15:06.144Z,81
2022-12-24T04:15:36.347Z,81
2022-12-24T04:16:23.726Z,82
2022-12-24T04:16:40.261Z,81
2022-12-24T04:17:12.458Z,81
2022-12-24T04:17:28.930Z,81
2022-12-24T04:18:00.724Z,81
2022-12-24T04:18:32.471Z,82
2022-12-24T04:18:48.812Z,82
2022-12-24T04:19:20.425Z,82
2022-12-24T04:19:42.035Z,82
2022-12-24T04:20:09.337Z,82
2022-12-24T04:20:37.704Z,82
2022-12-24T04:20:56.604Z,81
2022-12-24T04:21:30.144Z,81
2022-12-24T04:22:00.898Z,81
2022-12-24T04:22:32.279Z,81
2022-12-24T04:22:48.851Z,81
2022-12-24T04:23:20.391Z,81
2022-12-24T04:23:42.021Z,81
2022-12-24T04:24:08.957Z,80
2022-12-24T04:24:36.842Z,81
2022-12-24T04:24:56.211Z,81
2022-12-24T04:25:29.480Z,81
2022-12-24T04:26:01.164Z,81
2022-12-24T04:26:32.568Z,82
2022-12-24T04:26:48.724Z,82
2022-12-24T04:27:22.036Z,82
2022-12-24T04:27:42.160Z,81
2022-12-24T04:28:09.520Z,81
2022-12-24T04:28:36.832Z,81
2022-12-24T04:28:56.342Z,82
2022-12-24T04:29:28.873Z,82
2022-12-24T04:30:04.828Z,82
2022-12-24T04:30:32.297Z,82
2022-12-24T04:30:49.127Z,82
2022-12-24T04:31:20.573Z,81
2022-12-24T04:31:42.139Z,81
2022-12-24T04:32:09.145Z,81
2022-12-24T04:32:36.873Z,81
2022-12-24T04:32:56.257Z,81
2022-12-24T04:33:29.039Z,81
2022-12-24T04:34:00.970Z,81
2022-12-24T04:34:32.448Z,81
2022-12-24T04:34:48.857Z,81
2022-12-24T04:35:20.834Z,81
2022-12-24T04:35:42.219Z,81
2022-12-24T04:36:09.055Z,80
2022-12-24T04:36:36.980Z,80
2022-12-24T04:36:56.237Z,81
2022-12-24T04:37:29.026Z,81
2022-12-24T04:38:00.810Z,81
2022-12-24T04:38:32.367Z,81
2022-12-24T04:38:58.023Z,81
2022-12-24T04:39:20.216Z,81
2022-12-24T04:39:41.998Z,81
2022-12-24T04:40:09.885Z,81
2022-12-24T04:40:36.815Z,81
2022-12-24T04:40:58.064Z,81
2022-12-24T04:41:29.048Z,81
2022-12-24T04:42:00.640Z,81
2022-12-24T04:42:32.303Z,81
2022-12-24T04:42:48.662Z,82
2022-12-24T04:43:20.407Z,82
2022-12-24T04:43:42.193Z,81
2022-12-24T04:44:08.945Z,81
2022-12-24T04:44:37.093Z,81
2022-12-24T04:44:56.338Z,81
2022-12-24T04:45:30.659Z,81
2022-12-24T04:46:00.881Z,81
2022-12-24T04:46:32.321Z,81
2022-12-24T04:46:48.739Z,81
2022-12-24T04:47:20.316Z,81
2022-12-24T04:47:42.113Z,80
2022-12-24T04:48:09.010Z,81
2022-12-24T04:48:36.832Z,81
2022-12-24T04:48:56.270Z,81
2022-12-24T04:49:29.073Z,81
2022-12-24T04:50:01.233Z,81
2022-12-24T04:50:32.489Z,81
2022-12-24T04:50:49.087Z,81
2022-12-24T04:51:20.305Z,81
2022-12-24T04:51:42.040Z,81
2022-12-24T04:52:08.895Z,81
2022-12-24T04:52:36.927Z,81
2022-12-24T04:52:56.269Z,81
2022-12-24T04:53:28.858Z,81
2022-12-24T04:54:00.762Z,81
2022-12-24T04:54:32.477Z,81
2022-12-24T04:54:49.520Z,81
2022-12-24T04:55:20.786Z,81
2022-12-24T04:55:42.235Z,81
2022-12-24T04:56:08.983Z,82
2022-12-24T04:56:36.824Z,82
2022-12-24T04:56:56.189Z,82
2022-12-24T04:57:29.393Z,81
2022-12-24T04:58:00.571Z,81
2022-12-24T04:58:32.527Z,80
2022-12-24T04:58:48.831Z,80
2022-12-24T04:59:20.552Z,80
2022-12-24T04:59:42.275Z,80
2022-12-24T05:00:10.156Z,80
2022-12-24T05:00:39.690Z,80
2022-12-24T05:00:57.797Z,81
2022-12-24T05:01:29.271Z,81
2022-12-24T05:02:01.096Z,80
2022-12-24T05:02:33.018Z,80
2022-12-24T05:02:48.888Z,80
2022-12-24T05:03:20.659Z,80
2022-12-24T05:03:42.108Z,80
2022-12-24T05:04:09.039Z,81
2022-12-24T05:04:37.143Z,80
2022-12-24T05:04:56.197Z,80
2022-12-24T05:05:29.445Z,80
2022-12-24T05:06:01.652Z,81
2022-12-24T05:06:32.608Z,80
2022-12-24T05:06:48.818Z,80
2022-12-24T05:07:20.843Z,80
2022-12-24T05:07:42.016Z,80
2022-12-24T05:08:09.012Z,80
2022-12-24T05:08:37.065Z,80
2022-12-24T05:08:56.248Z,80
2022-12-24T05:09:29.523Z,80
2022-12-24T05:10:01.226Z,80
2022-12-24T05:10:33.625Z,80
2022-12-24T05:11:04.321Z,79
2022-12-24T05:11:36.460Z,79
2022-12-24T05:12:08.914Z,80
2022-12-24T05:12:36.850Z,80
2022-12-24T05:12:56.295Z,81
2022-12-24T05:13:36.709Z,81
2022-12-24T05:14:01.206Z,81
2022-12-24T05:14:32.494Z,79
2022-12-24T05:14:48.649Z,79
2022-12-24T05:15:21.301Z,79
2022-12-24T05:15:42.429Z,79
2022-12-24T05:16:09.235Z,80
2022-12-24T05:16:37.056Z,80
2022-12-24T05:16:56.402Z,80
2022-12-24T05:17:28.987Z,80
2022-12-24T05:18:00.640Z,80
2022-12-24T05:18:32.569Z,80
2022-12-24T05:18:48.874Z,80
2022-12-24T05:19:20.296Z,79
2022-12-24T05:19:42.094Z,79
2022-12-24T05:20:09.476Z,79
2022-12-24T05:20:36.984Z,79
2022-12-24T05:20:57.000Z,79
2022-12-24T05:21:29.575Z,79
2022-12-24T05:22:00.576Z,80
2022-12-24T05:22:32.361Z,80
2022-12-24T05:22:48.830Z,79
2022-12-24T05:23:20.377Z,79
2022-12-24T05:23:42.064Z,79
2022-12-24T05:24:08.913Z,79
2022-12-24T05:24:36.945Z,79
2022-12-24T05:24:56.321Z,79
2022-12-24T05:25:30.258Z,80
2022-12-24T05:26:01.323Z,79
2022-12-24T05:26:32.420Z,79
2022-12-24T05:26:53.923Z,79
2022-12-24T05:27:20.192Z,79
2022-12-24T05:27:47.439Z,79
2022-12-24T05:28:08.943Z,79
2022-12-24T05:28:37.071Z,79
2022-12-24T05:28:56.315Z,79
2022-12-24T05:29:28.949Z,79
2022-12-24T05:30:02.482Z,79
2022-12-24T05:30:32.676Z,79
2022-12-24T05:30:49.791Z,79
2022-12-24T05:31:20.460Z,79
2022-12-24T05:31:52.607Z,79
2022-12-24T05:32:08.939Z,78
2022-12-24T05:32:36.948Z,79
2022-12-24T05:32:56.252Z,79
2022-12-24T05:33:28.890Z,79
2022-12-24T05:34:00.674Z,80
2022-12-24T05:34:33.013Z,79
2022-12-24T05:34:48.731Z,79
2022-12-24T05:35:21.072Z,79
2022-12-24T05:35:42.090Z,79
2022-12-24T05:36:08.954Z,79
2022-12-24T05:36:40.068Z,79
2022-12-24T05:37:12.476Z,79
2022-12-24T05:37:36.910Z,79
2022-12-24T05:38:00.938Z,79
2022-12-24T05:38:33.011Z,79
2022-12-24T05:38:49.252Z,78
2022-12-24T05:39:20.439Z,78
2022-12-24T05:39:42.365Z,78
2022-12-24T05:40:09.388Z,79
2022-12-24T05:40:36.970Z,79
2022-12-24T05:40:57.004Z,79
2022-12-24T05:41:29.006Z,79
2022-12-24T05:42:00.732Z,80
2022-12-24T05:42:32.396Z,80
2022-12-24T05:42:48.689Z,80
2022-12-24T05:43:23.444Z,81
2022-12-24T05:43:42.059Z,81
2022-12-24T05:44:08.953Z,80
2022-12-24T05:44:37.336Z,80
2022-12-24T05:44:56.255Z,80
2022-12-24T05:45:30.453Z,80
2022-12-24T05:46:00.679Z,81
2022-12-24T05:46:33.994Z,81
2022-12-24T05:47:04.356Z,81
2022-12-24T05:47:43.061Z,81
2022-12-24T05:48:08.878Z,81
2022-12-24T05:48:37.367Z,81
2022-12-24T05:48:56.281Z,81
2022-12-24T05:49:28.942Z,80
2022-12-24T05:50:01.325Z,81
2022-12-24T05:50:32.376Z,81
2022-12-24T05:50:49.020Z,81
2022-12-24T05:51:20.281Z,81
2022-12-24T05:51:42.528Z,81
2022-12-24T05:52:09.175Z,81
2022-12-24T05:52:37.063Z,81
2022-12-24T05:52:56.308Z,82
2022-12-24T05:53:28.896Z,83
2022-12-24T05:54:00.660Z,82
2022-12-24T05:54:32.445Z,86
2022-12-24T05:54:48.806Z,85
2022-12-24T05:55:20.807Z,83
2022-12-24T05:55:42.323Z,83
2022-12-24T05:56:09.271Z,83
2022-12-24T05:56:37.355Z,83
2022-12-24T05:56:56.370Z,83
2022-12-24T05:57:30.151Z,83
2022-12-24T05:58:00.747Z,83
2022-12-24T05:58:32.487Z,83
2022-12-24T05:59:04.646Z,84
2022-12-24T05:59:36.372Z,84
2022-12-24T06:00:10.063Z,84
2022-12-24T06:00:36.986Z,84
2022-12-24T06:00:56.907Z,85
2022-12-24T06:01:29.032Z,86
2022-12-24T06:02:01.101Z,85
2022-12-24T06:02:32.436Z,85
2022-12-24T06:02:48.914Z,84
2022-12-24T06:03:23.539Z,85
2022-12-24T06:03:42.015Z,84
2022-12-24T06:04:09.033Z,85
2022-12-24T06:04:37.077Z,86
2022-12-24T06:04:56.341Z,86
2022-12-24T06:05:29.308Z,87
2022-12-24T06:06:00.537Z,86
2022-12-24T06:06:32.354Z,87
2022-12-24T06:06:49.125Z,87
2022-12-24T06:07:20.599Z,87
2022-12-24T06:07:42.182Z,87
2022-12-24T06:08:08.876Z,87
2022-12-24T06:08:36.964Z,87
2022-12-24T06:08:57.029Z,87
2022-12-24T06:09:29.426Z,88
2022-12-24T06:10:01.465Z,88
2022-12-24T06:10:32.415Z,88
2022-12-24T06:10:49.886Z,88
2022-12-24T06:11:20.321Z,88
2022-12-24T06:11:57.903Z,88
2022-12-24T06:12:24.363Z,88
2022-12-24T06:12:56.295Z,88
2022-12-24T06:13:29.147Z,88
2022-12-24T06:14:00.795Z,88
2022-12-24T06:14:32.714Z,88
2022-12-24T06:14:48.930Z,88
2022-12-24T06:15:24.057Z,88
2022-12-24T06:15:42.233Z,88
2022-12-24T06:16:09.336Z,89
2022-12-24T06:16:53.323Z,89
2022-12-24T06:17:12.290Z,89
2022-12-24T06:17:29.105Z,88
2022-12-24T06:18:01.122Z,89
2022-12-24T06:18:32.662Z,89
2022-12-24T06:18:48.745Z,89
2022-12-24T06:19:20.298Z,89
2022-12-24T06:19:42.045Z,88
2022-12-24T06:20:09.534Z,89
2022-12-24T06:20:36.910Z,89
2022-12-24T06:20:56.914Z,88
2022-12-24T06:21:29.292Z,89
2022-12-24T06:22:00.613Z,89
2022-12-24T06:22:32.346Z,89
2022-12-24T06:22:48.665Z,88
2022-12-24T06:23:20.455Z,89
2022-12-24T06:23:42.133Z,89
2022-12-24T06:24:08.991Z,88
2022-12-24T06:24:36.997Z,87
2022-12-24T06:24:56.690Z,87
2022-12-24T06:25:29.430Z,88